createdAt,value
2018-12-14T00:00:46.646Z,4.80
2018-12-14T00:03:14.086Z,4.80
2018-12-14T00:05:41.508Z,6.07
2018-12-14T00:08:08.946Z,5.10
2018-12-14T00:10:36.418Z,5.33
2018-12-14T00:13:03.873Z,5.58
2018-12-14T00:15:31.327Z,5.47
2018-12-14T00:17:58.742Z,4.93
2018-12-14T00:20:26.199Z,5.70
2018-12-14T00:22:53.636Z,5.60
2018-12-14T00:25:21.082Z,5.20
2018-12-14T00:27:48.518Z,6.15
2018-12-14T00:30:15.975Z,5.67
2018-12-14T00:32:43.501Z,5.83
2018-12-14T00:35:10.943Z,6.37
2018-12-14T00:37:38.367Z,6.30
2018-12-14T00:40:05.871Z,6.07
2018-12-14T00:42:33.314Z,5.22
2018-12-14T00:45:00.723Z,5.77
2018-12-14T00:47:28.228Z,6.10
2018-12-14T00:49:55.640Z,6.85
2018-12-14T00:52:23.080Z,6.62
2018-12-14T00:54:50.642Z,7.17
2018-12-14T00:57:18.139Z,6.80
2018-12-14T00:59:45.667Z,6.83
2018-12-14T01:02:18.781Z,7.80
2018-12-14T01:04:46.249Z,6.73
2018-12-14T01:07:13.698Z,7.20
2018-12-14T01:09:41.123Z,7.23
2018-12-14T01:12:08.537Z,6.93
2018-12-14T01:14:35.989Z,8.03
2018-12-14T01:17:03.475Z,8.33
2018-12-14T01:19:30.885Z,7.00
2018-12-14T01:21:58.322Z,7.70
2018-12-14T01:24:25.767Z,8.23
2018-12-14T01:26:53.194Z,8.30
2018-12-14T01:29:20.694Z,8.10
2018-12-14T01:31:48.093Z,8.50
2018-12-14T01:34:15.664Z,8.70
2018-12-14T01:36:43.086Z,8.40
2018-12-14T01:39:10.497Z,8.70
2018-12-14T01:41:37.930Z,9.90
2018-12-14T01:44:05.393Z,8.63
2018-12-14T01:46:32.811Z,9.60
2018-12-14T01:49:00.246Z,9.13
2018-12-14T01:51:27.701Z,7.53
2018-12-14T01:53:55.145Z,10.03
2018-12-14T01:56:22.585Z,7.20
2018-12-14T01:58:49.991Z,8.50
2018-12-14T02:01:17.429Z,8.73
2018-12-14T02:03:44.889Z,9.23
2018-12-14T02:06:12.307Z,8.40
2018-12-14T02:08:39.718Z,9.25
2018-12-14T02:11:07.143Z,7.90
2018-12-14T02:13:34.575Z,9.10
2018-12-14T02:16:02.049Z,8.50
2018-12-14T02:18:29.621Z,8.00
2018-12-14T02:20:57.043Z,9.60
2018-12-14T02:23:24.487Z,9.83
2018-12-14T02:25:51.913Z,8.77
2018-12-14T02:28:19.353Z,9.60
2018-12-14T02:30:46.851Z,9.18
2018-12-14T02:33:14.415Z,9.00
2018-12-14T02:35:41.867Z,10.93
2018-12-14T02:38:09.296Z,9.50
2018-12-14T02:40:36.754Z,10.40
2018-12-14T02:43:04.206Z,9.83
2018-12-14T02:45:31.652Z,9.20
2018-12-14T02:47:59.056Z,9.27
2018-12-14T02:50:26.512Z,9.90
2018-12-14T02:52:53.931Z,8.45
2018-12-14T02:55:21.402Z,9.60
2018-12-14T02:57:48.928Z,9.17
2018-12-14T03:00:16.457Z,9.10
2018-12-14T03:02:43.887Z,8.57
2018-12-14T03:05:11.345Z,9.90
2018-12-14T03:07:38.800Z,7.70
2018-12-14T03:10:06.598Z,10.17
2018-12-14T03:12:34.098Z,8.65
2018-12-14T03:15:01.559Z,8.20
2018-12-14T03:17:29.044Z,9.53
2018-12-14T03:19:56.633Z,9.08
2018-12-14T03:22:24.595Z,8.45
2018-12-14T03:24:52.044Z,8.90
2018-12-14T03:27:19.501Z,8.35
2018-12-14T03:29:46.998Z,9.33
2018-12-14T03:32:14.465Z,10.00
2018-12-14T03:34:41.903Z,8.93
2018-12-14T03:37:09.323Z,9.77
2018-12-14T03:39:36.759Z,8.43
2018-12-14T03:42:04.211Z,8.53
2018-12-14T03:44:31.668Z,9.45
2018-12-14T03:46:59.386Z,9.47
2018-12-14T03:49:26.846Z,9.23
2018-12-14T03:51:54.268Z,9.30
2018-12-14T03:54:21.741Z,7.75
2018-12-14T03:56:49.176Z,8.93
2018-12-14T03:59:16.612Z,8.70
2018-12-14T04:01:44.089Z,7.90
2018-12-14T04:04:11.547Z,8.40
2018-12-14T04:06:38.996Z,8.40
2018-12-14T04:09:06.480Z,7.37
2018-12-14T04:11:34.028Z,8.83
2018-12-14T04:14:01.487Z,7.93
2018-12-14T04:16:28.938Z,8.90
2018-12-14T04:18:56.448Z,8.78
2018-12-14T04:21:23.890Z,8.93
2018-12-14T04:23:51.436Z,9.95
2018-12-14T04:26:18.859Z,8.23
2018-12-14T04:28:46.282Z,7.37
2018-12-14T04:31:13.706Z,8.73
2018-12-14T04:33:41.620Z,8.80
2018-12-14T04:36:09.064Z,8.65
2018-12-14T04:38:36.512Z,8.00
2018-12-14T04:41:03.952Z,7.90
2018-12-14T04:43:31.390Z,7.80
2018-12-14T04:45:58.819Z,8.03
2018-12-14T04:48:26.265Z,9.47
2018-12-14T04:50:53.702Z,7.17
2018-12-14T04:53:21.142Z,7.33
2018-12-14T04:55:48.592Z,7.47
2018-12-14T04:58:16.032Z,7.33
2018-12-14T05:00:43.457Z,6.57
2018-12-14T05:03:10.873Z,6.07
2018-12-14T05:05:38.420Z,6.13
2018-12-14T05:08:05.905Z,6.72
2018-12-14T05:10:33.372Z,6.23
2018-12-14T05:13:00.797Z,6.97
2018-12-14T05:15:28.236Z,6.83
2018-12-14T05:17:55.674Z,5.23
2018-12-14T05:20:23.111Z,5.27
2018-12-14T05:22:50.555Z,6.00
2018-12-14T05:25:17.989Z,7.35
2018-12-14T05:27:45.476Z,6.70
2018-12-14T05:30:13.264Z,7.40
2018-12-14T05:32:40.697Z,6.80
2018-12-14T05:35:08.182Z,6.70
2018-12-14T05:37:35.635Z,5.83
2018-12-14T05:40:03.090Z,6.20
2018-12-14T05:42:30.569Z,6.20
2018-12-14T05:44:58.035Z,5.67
2018-12-14T05:47:25.466Z,5.97
2018-12-14T05:49:52.894Z,6.28
2018-12-14T05:52:20.371Z,6.22
2018-12-14T05:54:47.821Z,7.10
2018-12-14T05:57:15.283Z,6.37
2018-12-14T05:59:42.699Z,5.95
2018-12-14T06:02:10.181Z,7.28
2018-12-14T06:04:37.649Z,7.20
2018-12-14T06:07:05.119Z,6.60
2018-12-14T06:09:32.555Z,6.60
2018-12-14T06:12:00.073Z,7.47
2018-12-14T06:14:27.507Z,6.23
2018-12-14T06:16:55.002Z,6.77
2018-12-14T06:19:22.423Z,7.20
2018-12-14T06:21:49.843Z,6.80
2018-12-14T06:24:17.305Z,7.40
2018-12-14T06:26:44.782Z,7.05
2018-12-14T06:29:12.225Z,6.67
2018-12-14T06:31:39.710Z,7.20
2018-12-14T06:34:07.132Z,7.08
2018-12-14T06:36:35.390Z,7.40
2018-12-14T06:39:03.639Z,7.80
2018-12-14T06:41:31.106Z,7.20
2018-12-14T06:43:58.543Z,8.07
2018-12-14T06:46:25.975Z,8.33
2018-12-14T06:48:53.420Z,7.17
2018-12-14T06:51:20.864Z,7.95
2018-12-14T06:53:48.283Z,7.10
2018-12-14T06:56:15.700Z,7.73
2018-12-14T06:58:43.167Z,7.13
2018-12-14T07:01:10.588Z,10.40
2018-12-14T07:03:38.035Z,8.40
2018-12-14T07:06:05.449Z,9.03
2018-12-14T07:08:32.904Z,7.90
2018-12-14T07:11:00.388Z,8.40
2018-12-14T07:13:27.810Z,8.43
2018-12-14T07:15:55.227Z,8.28
2018-12-14T07:18:22.655Z,9.30
2018-12-14T07:20:50.307Z,8.33
2018-12-14T07:23:17.724Z,7.97
2018-12-14T07:25:45.155Z,8.93
2018-12-14T07:28:12.580Z,8.43
2018-12-14T07:30:40.000Z,8.88
2018-12-14T07:33:07.428Z,8.83
2018-12-14T07:35:34.867Z,8.37
2018-12-14T07:38:02.329Z,9.00
2018-12-14T07:40:29.776Z,8.47
2018-12-14T07:42:57.204Z,8.50
2018-12-14T07:45:24.649Z,9.17
2018-12-14T07:47:52.188Z,9.40
2018-12-14T07:50:19.631Z,10.17
2018-12-14T07:52:47.047Z,9.43
2018-12-14T07:55:14.503Z,8.83
2018-12-14T07:57:41.924Z,8.27
2018-12-14T08:00:09.403Z,9.77
2018-12-14T08:02:36.878Z,9.43
2018-12-14T08:05:05.070Z,10.55
2018-12-14T08:07:32.500Z,8.40
2018-12-14T08:09:59.921Z,10.00
2018-12-14T08:12:28.356Z,10.20
2018-12-14T08:14:55.778Z,9.90
2018-12-14T08:17:23.190Z,10.00
2018-12-14T08:19:50.602Z,9.90
2018-12-14T08:22:18.056Z,9.68
2018-12-14T08:24:45.507Z,10.65
2018-12-14T08:27:13.029Z,10.75
2018-12-14T08:29:40.425Z,10.25
2018-12-14T08:32:07.903Z,11.10
2018-12-14T08:34:35.385Z,10.40
2018-12-14T08:37:02.840Z,10.10
2018-12-14T08:39:30.277Z,9.70
2018-12-14T08:41:57.735Z,10.65
2018-12-14T08:44:25.154Z,9.90
2018-12-14T08:46:52.600Z,9.80
2018-12-14T08:49:20.051Z,9.07
2018-12-14T08:51:47.459Z,7.70
2018-12-14T08:54:14.904Z,8.27
2018-12-14T08:56:42.356Z,9.53
2018-12-14T08:59:09.787Z,10.20
2018-12-14T09:01:37.213Z,9.73
2018-12-14T09:04:04.665Z,9.20
2018-12-14T09:06:32.117Z,8.40
2018-12-14T09:08:59.543Z,8.90
2018-12-14T09:11:26.959Z,9.37
2018-12-14T09:13:54.386Z,9.80
2018-12-14T09:16:21.844Z,8.97
2018-12-14T09:18:49.267Z,8.78
2018-12-14T09:21:16.687Z,10.50
2018-12-14T09:23:44.142Z,9.57
2018-12-14T09:26:11.607Z,9.45
2018-12-14T09:28:39.045Z,9.13
2018-12-14T09:31:06.471Z,9.57
2018-12-14T09:33:33.923Z,10.13
2018-12-14T09:36:01.447Z,9.30
2018-12-14T09:38:28.864Z,9.10
2018-12-14T09:40:56.329Z,8.43
2018-12-14T09:43:23.776Z,8.40
2018-12-14T09:45:51.200Z,7.23
2018-12-14T09:48:18.619Z,8.57
2018-12-14T09:50:46.192Z,7.90
2018-12-14T09:53:13.641Z,8.30
2018-12-14T09:55:41.188Z,7.70
2018-12-14T09:58:08.614Z,7.77
2018-12-14T10:00:36.100Z,7.27
2018-12-14T10:03:03.561Z,8.18
2018-12-14T10:05:30.956Z,7.00
2018-12-14T10:07:59.098Z,9.07
2018-12-14T10:10:26.543Z,8.00
2018-12-14T10:12:53.955Z,8.18
2018-12-14T10:15:21.373Z,7.40
2018-12-14T10:17:48.781Z,7.40
2018-12-14T10:20:16.210Z,6.27
2018-12-14T10:22:43.652Z,7.73
2018-12-14T10:25:11.095Z,7.70
2018-12-14T10:27:38.511Z,7.40
2018-12-14T10:30:08.270Z,6.93
2018-12-14T10:32:35.688Z,8.33
2018-12-14T10:35:03.964Z,7.78
2018-12-14T10:37:31.368Z,7.00
2018-12-14T10:39:58.879Z,7.63
2018-12-14T10:42:26.343Z,7.58
2018-12-14T10:44:53.784Z,8.23
2018-12-14T10:47:21.231Z,7.80
2018-12-14T10:49:48.665Z,7.70
2018-12-14T10:52:16.117Z,7.45
2018-12-14T10:54:43.767Z,7.45
2018-12-14T10:57:16.145Z,7.83
2018-12-14T10:59:40.839Z,7.43
2018-12-14T11:02:08.292Z,7.70
2018-12-14T11:04:35.699Z,7.10
2018-12-14T11:07:03.126Z,7.50
2018-12-14T11:09:30.568Z,6.80
2018-12-14T11:11:58.026Z,8.50
2018-12-14T11:14:25.466Z,7.70
2018-12-14T11:16:52.951Z,6.97
2018-12-14T11:19:20.382Z,7.53
2018-12-14T11:21:47.811Z,6.90
2018-12-14T11:24:15.262Z,7.17
2018-12-14T11:26:42.687Z,8.25
2018-12-14T11:29:10.103Z,7.80
2018-12-14T11:31:37.535Z,7.57
2018-12-14T11:34:04.963Z,6.67
2018-12-14T11:36:32.392Z,7.23
2018-12-14T11:38:59.816Z,8.10
2018-12-14T11:41:27.572Z,7.10
2018-12-14T11:43:55.026Z,7.50
2018-12-14T11:46:22.429Z,7.70
2018-12-14T11:48:49.860Z,7.23
2018-12-14T11:51:17.292Z,7.20
2018-12-14T11:53:44.742Z,7.45
2018-12-14T11:56:12.192Z,7.50
2018-12-14T11:58:39.622Z,7.40
2018-12-14T12:01:07.066Z,7.47
2018-12-14T12:03:34.465Z,7.50
2018-12-14T12:06:01.897Z,8.08
2018-12-14T12:08:29.320Z,7.27
2018-12-14T12:10:56.727Z,7.20
2018-12-14T12:13:24.176Z,8.25
2018-12-14T12:15:51.607Z,7.33
2018-12-14T12:18:19.040Z,7.80
2018-12-14T12:20:46.482Z,7.80
2018-12-14T12:23:13.926Z,8.63
2018-12-14T12:25:41.348Z,7.90
2018-12-14T12:28:08.792Z,7.50
2018-12-14T12:30:36.219Z,7.67
2018-12-14T12:33:03.641Z,7.90
2018-12-14T12:35:31.088Z,7.65
2018-12-14T12:37:58.541Z,9.23
2018-12-14T12:40:25.984Z,7.83
2018-12-14T12:42:53.426Z,8.00
2018-12-14T12:45:20.910Z,8.43
2018-12-14T12:47:48.323Z,6.53
2018-12-14T12:50:15.735Z,8.37
2018-12-14T12:52:43.151Z,7.10
2018-12-14T12:55:10.598Z,8.27
2018-12-14T12:57:38.012Z,8.63
2018-12-14T13:00:06.075Z,7.10
2018-12-14T13:02:33.488Z,8.00
2018-12-14T13:05:00.924Z,7.73
2018-12-14T13:07:28.343Z,8.07
2018-12-14T13:09:55.767Z,7.65
2018-12-14T13:12:23.715Z,8.13
2018-12-14T13:14:51.128Z,8.00
2018-12-14T13:17:18.589Z,7.75
2018-12-14T13:19:46.016Z,8.43
2018-12-14T13:22:13.422Z,7.95
2018-12-14T13:24:40.851Z,7.42
2018-12-14T13:27:08.303Z,9.03
2018-12-14T13:29:35.745Z,7.67
2018-12-14T13:32:03.212Z,9.23
2018-12-14T13:34:31.570Z,7.72
2018-12-14T13:36:59.000Z,8.10
2018-12-14T13:39:26.451Z,8.17
2018-12-14T13:41:53.967Z,7.90
2018-12-14T13:44:21.921Z,7.70
2018-12-14T13:46:50.222Z,7.97
2018-12-14T13:49:17.897Z,7.90
2018-12-14T13:51:45.397Z,8.47
2018-12-14T13:54:12.816Z,8.58
2018-12-14T13:56:40.243Z,8.20
2018-12-14T13:59:07.686Z,8.95
2018-12-14T14:01:35.138Z,9.37
2018-12-14T14:04:02.571Z,8.03
2018-12-14T14:06:29.985Z,8.40
2018-12-14T14:08:57.409Z,8.47
2018-12-14T14:11:24.864Z,8.93
2018-12-14T14:13:52.353Z,9.03
2018-12-14T14:16:19.792Z,8.57
2018-12-14T14:18:47.232Z,8.50
2018-12-14T14:21:14.704Z,9.57
2018-12-14T14:23:42.124Z,8.60
2018-12-14T14:26:09.558Z,9.53
2018-12-14T14:28:36.979Z,9.03
2018-12-14T14:31:04.427Z,9.90
2018-12-14T14:33:31.936Z,8.93
2018-12-14T14:35:59.410Z,9.80
2018-12-14T14:38:26.860Z,9.40
2018-12-14T14:40:54.289Z,9.35
2018-12-14T14:43:21.711Z,8.50
2018-12-14T14:45:49.127Z,9.57
2018-12-14T14:48:16.677Z,9.70
2018-12-14T14:50:44.121Z,9.47
2018-12-14T14:53:11.592Z,10.03
2018-12-14T14:55:39.007Z,8.43
2018-12-14T14:58:06.421Z,9.50
2018-12-14T15:00:33.880Z,10.00
2018-12-14T15:03:01.398Z,9.20
2018-12-14T15:05:28.855Z,8.93
2018-12-14T15:07:56.314Z,10.23
2018-12-14T15:10:23.727Z,9.50
2018-12-14T15:12:51.155Z,9.27
2018-12-14T15:15:18.600Z,9.20
2018-12-14T15:17:46.019Z,9.80
2018-12-14T15:20:13.517Z,9.70
2018-12-14T15:22:40.926Z,10.50
2018-12-14T15:25:08.352Z,9.07
2018-12-14T15:27:35.804Z,10.20
2018-12-14T15:30:03.676Z,10.67
2018-12-14T15:32:31.225Z,10.60
2018-12-14T15:34:59.303Z,10.60
2018-12-14T15:37:27.026Z,10.50
2018-12-14T15:39:54.476Z,10.10
2018-12-14T15:42:21.883Z,10.48
2018-12-14T15:44:49.312Z,9.47
2018-12-14T15:47:16.774Z,10.60
2018-12-14T15:49:44.202Z,9.70
2018-12-14T15:52:11.627Z,11.28
2018-12-14T15:54:39.053Z,9.80
2018-12-14T15:57:06.464Z,11.17
2018-12-14T15:59:33.889Z,10.20
2018-12-14T16:02:28.173Z,12.73
2018-12-14T16:04:55.816Z,12.00
2018-12-14T16:07:23.244Z,11.60
2018-12-14T16:13:47.734Z,10.95
2018-12-14T16:16:15.301Z,10.50
2018-12-14T16:18:42.770Z,11.10
2018-12-14T16:21:10.272Z,10.88
2018-12-14T16:23:37.705Z,11.40
2018-12-14T16:26:05.217Z,11.88
2018-12-14T16:31:23.098Z,12.50
2018-12-14T16:39:51.251Z,11.95
2018-12-14T16:42:18.699Z,11.63
2018-12-14T16:44:46.056Z,11.65
2018-12-14T16:47:13.450Z,13.45
2018-12-14T16:49:40.834Z,11.48
2018-12-14T16:52:08.240Z,11.20
2018-12-14T16:54:35.641Z,12.70
2018-12-14T16:57:03.045Z,12.28
2018-12-14T16:59:30.425Z,12.60
2018-12-14T17:01:57.823Z,12.20
2018-12-14T17:04:25.249Z,10.78
2018-12-14T17:06:52.697Z,12.00
2018-12-14T17:09:20.090Z,12.90
2018-12-14T17:11:47.481Z,11.95
2018-12-14T17:14:14.867Z,12.05
2018-12-14T17:16:42.276Z,13.08
2018-12-14T17:19:09.646Z,12.75
2018-12-14T17:21:37.031Z,13.38
2018-12-14T17:24:04.426Z,12.60
2018-12-14T17:26:31.793Z,12.18
2018-12-14T17:28:59.174Z,15.78
2018-12-14T17:31:26.577Z,13.03
2018-12-14T17:33:53.970Z,13.23
2018-12-14T17:36:21.346Z,15.78
2018-12-14T17:38:48.738Z,16.60
2018-12-14T17:41:16.177Z,16.20
2018-12-14T17:43:43.565Z,17.27
2018-12-14T17:46:10.943Z,18.82
2018-12-14T17:48:38.411Z,18.03
2018-12-14T17:51:05.796Z,21.83
2018-12-14T17:53:33.179Z,18.47
2018-12-14T17:56:00.574Z,17.80
2018-12-14T17:58:27.950Z,18.47
2018-12-14T18:00:58.372Z,20.25
2018-12-14T18:03:24.724Z,18.30
2018-12-14T18:05:52.093Z,20.73
2018-12-14T18:08:19.505Z,24.30
2018-12-14T18:10:46.878Z,21.12
2018-12-14T18:13:14.261Z,21.37
2018-12-14T18:15:46.351Z,21.47
2018-12-14T18:18:11.925Z,21.05
2018-12-14T18:20:39.345Z,21.80
2018-12-14T18:23:06.737Z,21.90
2018-12-14T18:25:34.229Z,23.25
2018-12-14T18:28:01.610Z,23.70
2018-12-14T18:30:28.999Z,23.00
2018-12-14T18:32:56.465Z,21.80
2018-12-14T18:35:23.894Z,20.17
2018-12-14T18:37:51.290Z,19.80
2018-12-14T18:40:18.685Z,20.30
2018-12-14T18:42:46.160Z,21.23
2018-12-14T18:45:13.528Z,20.63
2018-12-14T18:47:40.926Z,21.00
2018-12-14T18:50:08.313Z,19.37
2018-12-14T18:52:35.690Z,19.00
2018-12-14T18:55:03.089Z,19.70
2018-12-14T18:57:30.534Z,22.83
2018-12-14T18:59:57.935Z,21.90
2018-12-14T19:02:25.607Z,20.20
2018-12-14T19:04:53.010Z,18.17
2018-12-14T19:07:20.398Z,20.13
2018-12-14T19:09:48.108Z,22.30
2018-12-14T19:12:15.666Z,22.10
2018-12-14T19:14:43.074Z,21.17
2018-12-14T19:17:10.466Z,19.60
2018-12-14T19:19:37.877Z,22.17
2018-12-14T19:22:05.311Z,20.13
2018-12-14T19:24:32.698Z,19.93
2018-12-14T19:27:00.069Z,19.90
2018-12-14T19:29:27.459Z,21.95
2018-12-14T19:31:54.883Z,20.53
2018-12-14T19:34:22.482Z,22.77
2018-12-14T19:36:49.940Z,18.50
2018-12-14T19:39:17.506Z,21.17
2018-12-14T19:41:45.200Z,17.75
2018-12-14T19:44:12.582Z,23.05
2018-12-14T19:46:39.979Z,19.23
2018-12-14T19:49:07.361Z,18.80
2018-12-14T19:51:34.760Z,19.92
2018-12-14T19:54:02.210Z,16.37
2018-12-14T19:56:29.613Z,17.17
2018-12-14T19:58:56.985Z,17.63
2018-12-14T20:01:24.396Z,16.43
2018-12-14T20:03:51.769Z,16.00
2018-12-14T20:06:19.166Z,15.72
2018-12-14T20:08:46.559Z,17.07
2018-12-14T20:11:13.953Z,19.00
2018-12-14T20:13:41.326Z,17.23
2018-12-14T20:16:12.776Z,15.80
2018-12-14T20:18:38.097Z,15.37
2018-12-14T20:22:26.313Z,18.67
2018-12-14T20:24:53.708Z,17.30
2018-12-14T20:27:21.141Z,14.78
2018-12-14T20:29:48.626Z,15.23
2018-12-14T20:32:16.022Z,14.60
2018-12-14T20:34:43.398Z,15.33
2018-12-14T20:37:10.801Z,14.77
2018-12-14T20:39:38.275Z,14.37
2018-12-14T20:42:05.757Z,17.60
2018-12-14T20:44:33.150Z,14.30
2018-12-14T20:47:00.540Z,15.80
2018-12-14T20:49:28.030Z,14.33
2018-12-14T20:51:55.418Z,15.45
2018-12-14T20:54:22.815Z,15.07
2018-12-14T20:56:51.706Z,14.65
2018-12-14T20:59:19.393Z,15.13
2018-12-14T21:01:46.796Z,15.55
2018-12-14T21:04:14.266Z,13.75
2018-12-14T21:06:41.667Z,15.32
2018-12-14T21:09:09.070Z,15.87
2018-12-14T21:11:36.520Z,16.43
2018-12-14T21:14:03.966Z,15.27
2018-12-14T21:16:31.362Z,13.70
2018-12-14T21:18:58.781Z,13.98
2018-12-14T21:21:26.181Z,17.10
2018-12-14T21:23:53.612Z,15.85
2018-12-14T21:26:20.985Z,13.20
2018-12-14T21:28:48.375Z,13.58
2018-12-14T21:31:15.870Z,13.07
2018-12-14T21:33:43.253Z,14.80
2018-12-14T21:36:10.637Z,14.83
2018-12-14T21:38:38.034Z,14.23
2018-12-14T21:41:05.421Z,12.57
2018-12-14T21:43:33.390Z,15.00
2018-12-14T21:46:00.865Z,14.37
2018-12-14T21:48:28.261Z,12.65
2018-12-14T21:50:55.645Z,15.27
2018-12-14T21:53:23.020Z,15.80
2018-12-14T21:55:50.425Z,14.70
2018-12-14T21:58:17.972Z,11.95
2018-12-14T22:00:45.351Z,12.60
2018-12-14T22:03:12.734Z,12.10
2018-12-14T22:05:40.492Z,11.95
2018-12-14T22:08:07.923Z,13.70
2018-12-14T22:10:35.406Z,10.95
2018-12-14T22:13:02.810Z,12.23
2018-12-14T22:15:30.209Z,10.97
2018-12-14T22:17:57.703Z,12.00
2018-12-14T22:20:25.098Z,10.37
2018-12-14T22:22:52.481Z,11.90
2018-12-14T22:25:19.882Z,10.53
2018-12-14T22:27:47.283Z,12.33
2018-12-14T22:30:14.686Z,11.03
2018-12-14T22:32:42.086Z,12.43
2018-12-14T22:35:09.513Z,14.17
2018-12-14T22:37:36.901Z,11.87
2018-12-14T22:40:05.082Z,11.13
2018-12-14T22:42:32.454Z,14.10
2018-12-14T22:44:59.929Z,11.80
2018-12-14T22:47:27.330Z,12.67
2018-12-14T22:49:54.715Z,13.03
2018-12-14T22:52:22.102Z,11.85
2018-12-14T22:54:49.494Z,12.00
2018-12-14T22:57:16.893Z,12.90
2018-12-14T22:59:44.302Z,13.13
2018-12-14T23:02:11.693Z,13.13
2018-12-14T23:04:39.134Z,12.80
2018-12-14T23:07:06.568Z,11.43
2018-12-14T23:09:33.954Z,12.40
2018-12-14T23:12:01.345Z,12.53
2018-12-14T23:14:29.557Z,11.55
2018-12-14T23:16:56.938Z,12.15
2018-12-14T23:19:24.346Z,13.15
2018-12-14T23:21:51.759Z,12.55
2018-12-14T23:24:19.169Z,12.37
2018-12-14T23:26:46.552Z,13.40
2018-12-14T23:29:13.958Z,13.25
2018-12-14T23:31:41.425Z,13.10
2018-12-14T23:34:08.814Z,11.95
2018-12-14T23:36:36.403Z,11.12
2018-12-14T23:39:05.192Z,11.13
2018-12-14T23:41:32.577Z,11.60
2018-12-14T23:43:59.970Z,11.15
2018-12-14T23:46:27.358Z,10.40
2018-12-14T23:48:54.742Z,11.43
2018-12-14T23:51:22.138Z,11.20
2018-12-14T23:53:49.525Z,12.25
2018-12-14T23:56:16.933Z,10.20
2018-12-14T23:58:44.322Z,11.13
